sensor_id;sensor_type;location;lat;lon;timestamp;pressure;altitude;pressure_sealevel;temperature;humidity
62952;BME280;52163;52.212;-1.002;2023-02-03T00:01:11;101556.60;;;9.07;80.35
62952;BME280;52163;52.212;-1.002;2023-02-03T00:03:36;101556.01;;;9.09;80.18
62952;BME280;52163;52.212;-1.002;2023-02-03T00:06:02;101557.32;;;9.11;80.09
62952;BME280;52163;52.212;-1.002;2023-02-03T00:08:29;101561.45;;;9.14;80.29
62952;BME280;52163;52.212;-1.002;2023-02-03T00:10:54;101563.67;;;9.16;80.48
62952;BME280;52163;52.212;-1.002;2023-02-03T00:13:21;101576.69;;;9.18;80.48
62952;BME280;52163;52.212;-1.002;2023-02-03T00:15:46;101582.26;;;9.19;80.50
62952;BME280;52163;52.212;-1.002;2023-02-03T00:18:11;101592.46;;;9.20;80.41
62952;BME280;52163;52.212;-1.002;2023-02-03T00:20:37;101592.98;;;9.20;80.43
62952;BME280;52163;52.212;-1.002;2023-02-03T00:23:07;101583.26;;;9.21;80.23
62952;BME280;52163;52.212;-1.002;2023-02-03T00:25:33;101586.73;;;9.22;80.32
62952;BME280;52163;52.212;-1.002;2023-02-03T00:27:59;101588.28;;;9.23;80.21
62952;BME280;52163;52.212;-1.002;2023-02-03T00:30:24;101589.99;;;9.24;80.25
62952;BME280;52163;52.212;-1.002;2023-02-03T00:32:50;101593.98;;;9.26;80.23
62952;BME280;52163;52.212;-1.002;2023-02-03T00:35:15;101594.65;;;9.27;80.27
62952;BME280;52163;52.212;-1.002;2023-02-03T00:37:41;101592.17;;;9.27;80.58
62952;BME280;52163;52.212;-1.002;2023-02-03T00:40:07;101595.51;;;9.27;80.27
62952;BME280;52163;52.212;-1.002;2023-02-03T00:42:35;101590.23;;;9.27;80.44
62952;BME280;52163;52.212;-1.002;2023-02-03T00:45:01;101595.67;;;9.27;80.28
62952;BME280;52163;52.212;-1.002;2023-02-03T00:47:26;101601.48;;;9.28;80.47
62952;BME280;52163;52.212;-1.002;2023-02-03T00:49:52;101600.42;;;9.28;80.70
62952;BME280;52163;52.212;-1.002;2023-02-03T00:52:17;101592.52;;;9.27;80.88
62952;BME280;52163;52.212;-1.002;2023-02-03T00:54:43;101586.14;;;9.24;80.59
62952;BME280;52163;52.212;-1.002;2023-02-03T00:57:08;101579.84;;;9.18;80.52
62952;BME280;52163;52.212;-1.002;2023-02-03T00:59:33;101575.31;;;9.11;80.98
62952;BME280;52163;52.212;-1.002;2023-02-03T01:01:59;101574.13;;;9.05;81.34
62952;BME280;52163;52.212;-1.002;2023-02-03T01:04:25;101567.46;;;8.99;81.22
62952;BME280;52163;52.212;-1.002;2023-02-03T01:06:50;101566.25;;;8.94;81.42
62952;BME280;52163;52.212;-1.002;2023-02-03T01:09:16;101568.23;;;8.87;81.88
62952;BME280;52163;52.212;-1.002;2023-02-03T01:11:41;101570.06;;;8.81;82.11
62952;BME280;52163;52.212;-1.002;2023-02-03T01:14:07;101563.25;;;8.75;82.17
62952;BME280;52163;52.212;-1.002;2023-02-03T01:16:32;101565.27;;;8.67;82.30
62952;BME280;52163;52.212;-1.002;2023-02-03T01:19:02;101563.22;;;8.60;82.73
62952;BME280;52163;52.212;-1.002;2023-02-03T01:21:27;101563.98;;;8.54;83.07
62952;BME280;52163;52.212;-1.002;2023-02-03T01:23:53;101563.45;;;8.48;83.24
62952;BME280;52163;52.212;-1.002;2023-02-03T01:26:21;101563.72;;;8.46;83.52
62952;BME280;52163;52.212;-1.002;2023-02-03T01:28:55;101558.86;;;8.42;83.57
62952;BME280;52163;52.212;-1.002;2023-02-03T01:31:32;101552.06;;;8.40;84.00
62952;BME280;52163;52.212;-1.002;2023-02-03T01:34:05;101552.69;;;8.38;84.16
62952;BME280;52163;52.212;-1.002;2023-02-03T01:36:32;101548.50;;;8.36;84.40
62952;BME280;52163;52.212;-1.002;2023-02-03T01:38:58;101549.19;;;8.37;84.68
62952;BME280;52163;52.212;-1.002;2023-02-03T01:41:29;101544.60;;;8.37;84.61
62952;BME280;52163;52.212;-1.002;2023-02-03T01:43:57;101547.39;;;8.38;84.80
62952;BME280;52163;52.212;-1.002;2023-02-03T01:49:10;101548.97;;;8.38;84.83
62952;BME280;52163;52.212;-1.002;2023-02-03T01:51:39;101559.69;;;8.39;84.89
62952;BME280;52163;52.212;-1.002;2023-02-03T01:54:08;101568.14;;;8.39;85.04
62952;BME280;52163;52.212;-1.002;2023-02-03T01:56:38;101575.43;;;8.37;85.22
62952;BME280;52163;52.212;-1.002;2023-02-03T01:59:05;101575.50;;;8.35;85.18
62952;BME280;52163;52.212;-1.002;2023-02-03T02:01:31;101569.32;;;8.30;85.47
62952;BME280;52163;52.212;-1.002;2023-02-03T02:03:59;101567.52;;;8.26;85.42
62952;BME280;52163;52.212;-1.002;2023-02-03T02:06:26;101570.94;;;8.24;85.79
62952;BME280;52163;52.212;-1.002;2023-02-03T02:08:52;101567.32;;;8.22;86.05
62952;BME280;52163;52.212;-1.002;2023-02-03T02:11:19;101567.32;;;8.22;86.24
62952;BME280;52163;52.212;-1.002;2023-02-03T02:13:46;101559.28;;;8.20;86.62
62952;BME280;52163;52.212;-1.002;2023-02-03T02:22:13;101565.89;;;8.17;87.21
62952;BME280;52163;52.212;-1.002;2023-02-03T02:32:47;101569.86;;;8.19;87.90
62952;BME280;52163;52.212;-1.002;2023-02-03T02:38:19;101567.88;;;8.21;87.97
62952;BME280;52163;52.212;-1.002;2023-02-03T02:40:52;101569.50;;;8.20;87.89
62952;BME280;52163;52.212;-1.002;2023-02-03T02:43:27;101573.94;;;8.18;88.03
62952;BME280;52163;52.212;-1.002;2023-02-03T02:46:13;101578.69;;;8.19;88.24
62952;BME280;52163;52.212;-1.002;2023-02-03T02:48:47;101570.52;;;8.21;88.39
62952;BME280;52163;52.212;-1.002;2023-02-03T02:51:17;101565.58;;;8.21;88.39
62952;BME280;52163;52.212;-1.002;2023-02-03T02:53:49;101558.76;;;8.20;88.16
62952;BME280;52163;52.212;-1.002;2023-02-03T02:56:17;101567.98;;;8.18;88.31
62952;BME280;52163;52.212;-1.002;2023-02-03T02:58:45;101570.56;;;8.14;88.49
62952;BME280;52163;52.212;-1.002;2023-02-03T03:01:13;101569.80;;;8.10;88.27
62952;BME280;52163;52.212;-1.002;2023-02-03T03:03:40;101570.36;;;8.10;88.52
62952;BME280;52163;52.212;-1.002;2023-02-03T03:06:13;101570.73;;;8.09;88.64
62952;BME280;52163;52.212;-1.002;2023-02-03T03:09:06;101573.73;;;8.09;88.83
62952;BME280;52163;52.212;-1.002;2023-02-03T03:11:44;101570.31;;;8.11;88.92
62952;BME280;52163;52.212;-1.002;2023-02-03T03:14:12;101567.80;;;8.12;88.68
62952;BME280;52163;52.212;-1.002;2023-02-03T03:16:46;101566.09;;;8.11;88.90
62952;BME280;52163;52.212;-1.002;2023-02-03T03:19:17;101565.83;;;8.08;89.04
62952;BME280;52163;52.212;-1.002;2023-02-03T03:21:47;101564.02;;;8.05;89.06
62952;BME280;52163;52.212;-1.002;2023-02-03T03:24:19;101567.08;;;8.02;89.22
62952;BME280;52163;52.212;-1.002;2023-02-03T03:29:23;101560.89;;;7.98;89.34
62952;BME280;52163;52.212;-1.002;2023-02-03T03:31:49;101560.34;;;7.98;89.61
62952;BME280;52163;52.212;-1.002;2023-02-03T03:34:16;101555.12;;;7.97;89.68
62952;BME280;52163;52.212;-1.002;2023-02-03T03:39:27;101554.55;;;7.93;89.90
62952;BME280;52163;52.212;-1.002;2023-02-03T03:42:39;101549.48;;;7.92;89.87
62952;BME280;52163;52.212;-1.002;2023-02-03T03:50:25;101564.63;;;7.91;90.25
62952;BME280;52163;52.212;-1.002;2023-02-03T03:52:53;101558.98;;;7.91;90.28
62952;BME280;52163;52.212;-1.002;2023-02-03T03:55:20;101557.08;;;7.91;90.50
62952;BME280;52163;52.212;-1.002;2023-02-03T04:00:33;101552.80;;;7.98;90.28
62952;BME280;52163;52.212;-1.002;2023-02-03T04:03:06;101561.15;;;8.06;90.24
62952;BME280;52163;52.212;-1.002;2023-02-03T04:05:35;101557.71;;;8.14;90.14
62952;BME280;52163;52.212;-1.002;2023-02-03T04:08:02;101559.48;;;8.19;90.01
62952;BME280;52163;52.212;-1.002;2023-02-03T04:10:36;101568.13;;;8.24;89.75
62952;BME280;52163;52.212;-1.002;2023-02-03T04:13:03;101574.11;;;8.29;89.47
62952;BME280;52163;52.212;-1.002;2023-02-03T04:15:29;101577.33;;;8.33;89.33
62952;BME280;52163;52.212;-1.002;2023-02-03T04:17:55;101581.59;;;8.37;89.45
62952;BME280;52163;52.212;-1.002;2023-02-03T04:20:22;101590.08;;;8.41;88.92
62952;BME280;52163;52.212;-1.002;2023-02-03T04:22:48;101600.02;;;8.44;88.98
62952;BME280;52163;52.212;-1.002;2023-02-03T04:25:14;101604.69;;;8.46;88.75
62952;BME280;52163;52.212;-1.002;2023-02-03T04:27:39;101609.41;;;8.49;88.95
62952;BME280;52163;52.212;-1.002;2023-02-03T04:30:06;101611.27;;;8.51;88.80
62952;BME280;52163;52.212;-1.002;2023-02-03T04:32:31;101610.30;;;8.54;88.37
62952;BME280;52163;52.212;-1.002;2023-02-03T04:35:00;101603.48;;;8.57;88.25
62952;BME280;52163;52.212;-1.002;2023-02-03T04:37:26;101605.36;;;8.59;88.23
62952;BME280;52163;52.212;-1.002;2023-02-03T04:39:52;101601.48;;;8.59;88.08
62952;BME280;52163;52.212;-1.002;2023-02-03T04:42:20;101603.64;;;8.58;88.03
62952;BME280;52163;52.212;-1.002;2023-02-03T04:44:45;101603.16;;;8.56;88.01
62952;BME280;52163;52.212;-1.002;2023-02-03T04:47:11;101606.08;;;8.54;87.86
62952;BME280;52163;52.212;-1.002;2023-02-03T04:49:36;101600.38;;;8.51;87.88
62952;BME280;52163;52.212;-1.002;2023-02-03T04:52:02;101594.79;;;8.48;88.16
62952;BME280;52163;52.212;-1.002;2023-02-03T04:54:27;101591.02;;;8.45;87.95
62952;BME280;52163;52.212;-1.002;2023-02-03T04:56:53;101592.15;;;8.42;88.34
62952;BME280;52163;52.212;-1.002;2023-02-03T04:59:18;101594.36;;;8.39;88.43
62952;BME280;52163;52.212;-1.002;2023-02-03T05:01:43;101596.17;;;8.38;88.75
62952;BME280;52163;52.212;-1.002;2023-02-03T05:04:09;101601.46;;;8.37;88.90
62952;BME280;52163;52.212;-1.002;2023-02-03T05:06:35;101597.06;;;8.38;89.18
62952;BME280;52163;52.212;-1.002;2023-02-03T05:09:00;101597.71;;;8.39;88.91
62952;BME280;52163;52.212;-1.002;2023-02-03T05:11:26;101598.03;;;8.40;89.38
62952;BME280;52163;52.212;-1.002;2023-02-03T05:13:52;101594.51;;;8.40;89.30
62952;BME280;52163;52.212;-1.002;2023-02-03T05:16:17;101598.88;;;8.40;89.81
62952;BME280;52163;52.212;-1.002;2023-02-03T05:18:43;101595.02;;;8.40;89.51
62952;BME280;52163;52.212;-1.002;2023-02-03T05:21:08;101595.71;;;8.41;89.80
62952;BME280;52163;52.212;-1.002;2023-02-03T05:23:33;101595.48;;;8.42;89.98
62952;BME280;52163;52.212;-1.002;2023-02-03T05:25:59;101597.02;;;8.44;90.34
62952;BME280;52163;52.212;-1.002;2023-02-03T05:28:24;101598.02;;;8.47;90.65
62952;BME280;52163;52.212;-1.002;2023-02-03T05:30:50;101598.52;;;8.47;90.73
62952;BME280;52163;52.212;-1.002;2023-02-03T05:33:16;101598.82;;;8.49;90.70
62952;BME280;52163;52.212;-1.002;2023-02-03T05:35:41;101600.64;;;8.53;91.14
62952;BME280;52163;52.212;-1.002;2023-02-03T05:38:07;101604.61;;;8.55;90.95
62952;BME280;52163;52.212;-1.002;2023-02-03T05:40:32;101599.65;;;8.56;91.12
62952;BME280;52163;52.212;-1.002;2023-02-03T05:43:16;101602.83;;;8.56;90.89
62952;BME280;52163;52.212;-1.002;2023-02-03T05:45:42;101602.86;;;8.55;91.14
62952;BME280;52163;52.212;-1.002;2023-02-03T05:48:07;101600.26;;;8.54;91.34
62952;BME280;52163;52.212;-1.002;2023-02-03T05:50:34;101596.20;;;8.54;91.51
62952;BME280;52163;52.212;-1.002;2023-02-03T05:53:00;101599.90;;;8.54;91.24
62952;BME280;52163;52.212;-1.002;2023-02-03T05:55:27;101605.83;;;8.55;91.38
62952;BME280;52163;52.212;-1.002;2023-02-03T05:57:52;101606.35;;;8.56;91.37
62952;BME280;52163;52.212;-1.002;2023-02-03T06:00:19;101609.52;;;8.56;91.78
62952;BME280;52163;52.212;-1.002;2023-02-03T06:02:53;101612.17;;;8.55;91.79
62952;BME280;52163;52.212;-1.002;2023-02-03T06:05:19;101617.08;;;8.56;91.92
62952;BME280;52163;52.212;-1.002;2023-02-03T06:07:45;101618.63;;;8.57;91.87
62952;BME280;52163;52.212;-1.002;2023-02-03T06:10:10;101614.36;;;8.59;92.18
62952;BME280;52163;52.212;-1.002;2023-02-03T06:12:37;101626.00;;;8.58;92.37
62952;BME280;52163;52.212;-1.002;2023-02-03T06:15:03;101617.20;;;8.58;92.36
62952;BME280;52163;52.212;-1.002;2023-02-03T06:17:30;101621.60;;;8.58;92.24
62952;BME280;52163;52.212;-1.002;2023-02-03T06:19:55;101628.44;;;8.59;92.50
62952;BME280;52163;52.212;-1.002;2023-02-03T06:22:21;101624.20;;;8.59;92.07
62952;BME280;52163;52.212;-1.002;2023-02-03T06:24:46;101623.66;;;8.60;92.45
62952;BME280;52163;52.212;-1.002;2023-02-03T06:27:13;101631.66;;;8.58;92.24
62952;BME280;52163;52.212;-1.002;2023-02-03T06:29:40;101632.95;;;8.56;92.52
62952;BME280;52163;52.212;-1.002;2023-02-03T06:32:06;101641.27;;;8.54;92.36
62952;BME280;52163;52.212;-1.002;2023-02-03T06:34:31;101645.02;;;8.53;92.67
62952;BME280;52163;52.212;-1.002;2023-02-03T06:36:57;101649.27;;;8.53;92.81
62952;BME280;52163;52.212;-1.002;2023-02-03T06:39:23;101655.96;;;8.52;92.89
62952;BME280;52163;52.212;-1.002;2023-02-03T06:41:48;101667.96;;;8.52;92.98
62952;BME280;52163;52.212;-1.002;2023-02-03T06:44:19;101664.52;;;8.49;92.75
62952;BME280;52163;52.212;-1.002;2023-02-03T06:46:44;101663.52;;;8.47;92.95
62952;BME280;52163;52.212;-1.002;2023-02-03T06:49:09;101664.60;;;8.46;93.19
62952;BME280;52163;52.212;-1.002;2023-02-03T06:51:35;101672.92;;;8.44;93.07
62952;BME280;52163;52.212;-1.002;2023-02-03T06:54:01;101670.63;;;8.44;93.48
62952;BME280;52163;52.212;-1.002;2023-02-03T06:56:28;101675.40;;;8.43;93.49
62952;BME280;52163;52.212;-1.002;2023-02-03T06:58:54;101676.66;;;8.42;93.44
62952;BME280;52163;52.212;-1.002;2023-02-03T07:01:20;101681.67;;;8.40;93.53
62952;BME280;52163;52.212;-1.002;2023-02-03T07:03:45;101681.02;;;8.39;93.65
62952;BME280;52163;52.212;-1.002;2023-02-03T07:06:12;101682.08;;;8.38;93.56
62952;BME280;52163;52.212;-1.002;2023-02-03T07:08:37;101689.28;;;8.38;93.95
62952;BME280;52163;52.212;-1.002;2023-02-03T07:11:02;101684.52;;;8.39;93.83
62952;BME280;52163;52.212;-1.002;2023-02-03T07:13:28;101692.27;;;8.39;94.08
62952;BME280;52163;52.212;-1.002;2023-02-03T07:15:54;101691.95;;;8.38;94.16
62952;BME280;52163;52.212;-1.002;2023-02-03T07:18:19;101691.29;;;8.37;93.88
62952;BME280;52163;52.212;-1.002;2023-02-03T07:20:49;101694.33;;;8.35;94.19
62952;BME280;52163;52.212;-1.002;2023-02-03T07:23:15;101688.16;;;8.35;94.23
62952;BME280;52163;52.212;-1.002;2023-02-03T07:25:41;101698.52;;;8.37;94.34
62952;BME280;52163;52.212;-1.002;2023-02-03T07:28:06;101698.17;;;8.36;94.25
62952;BME280;52163;52.212;-1.002;2023-02-03T07:30:32;101698.00;;;8.36;93.93
62952;BME280;52163;52.212;-1.002;2023-02-03T07:32:57;101699.09;;;8.35;94.15
62952;BME280;52163;52.212;-1.002;2023-02-03T07:35:23;101689.76;;;8.35;94.20
62952;BME280;52163;52.212;-1.002;2023-02-03T07:37:48;101685.72;;;8.35;94.31
62952;BME280;52163;52.212;-1.002;2023-02-03T07:40:14;101678.66;;;8.35;94.00
62952;BME280;52163;52.212;-1.002;2023-02-03T07:42:43;101676.52;;;8.36;94.28
62952;BME280;52163;52.212;-1.002;2023-02-03T07:45:11;101687.94;;;8.37;94.29
62952;BME280;52163;52.212;-1.002;2023-02-03T07:47:37;101685.48;;;8.37;93.82
62952;BME280;52163;52.212;-1.002;2023-02-03T07:50:03;101686.69;;;8.37;94.02
62952;BME280;52163;52.212;-1.002;2023-02-03T07:52:29;101683.70;;;8.37;94.09
62952;BME280;52163;52.212;-1.002;2023-02-03T07:54:54;101681.73;;;8.38;94.18
62952;BME280;52163;52.212;-1.002;2023-02-03T07:57:19;101673.44;;;8.39;94.09
62952;BME280;52163;52.212;-1.002;2023-02-03T07:59:45;101678.34;;;8.39;94.06
62952;BME280;52163;52.212;-1.002;2023-02-03T08:02:10;101676.73;;;8.40;94.22
62952;BME280;52163;52.212;-1.002;2023-02-03T08:04:36;101674.38;;;8.42;93.88
62952;BME280;52163;52.212;-1.002;2023-02-03T08:07:02;101673.27;;;8.44;93.72
62952;BME280;52163;52.212;-1.002;2023-02-03T08:09:27;101675.89;;;8.46;94.04
62952;BME280;52163;52.212;-1.002;2023-02-03T08:11:53;101677.04;;;8.48;93.96
62952;BME280;52163;52.212;-1.002;2023-02-03T08:14:18;101673.30;;;8.49;93.66
62952;BME280;52163;52.212;-1.002;2023-02-03T08:16:43;101667.47;;;8.51;93.30
62952;BME280;52163;52.212;-1.002;2023-02-03T08:19:11;101673.26;;;8.51;93.28
62952;BME280;52163;52.212;-1.002;2023-02-03T08:21:36;101682.06;;;8.52;93.49
62952;BME280;52163;52.212;-1.002;2023-02-03T08:24:02;101685.48;;;8.54;93.42
62952;BME280;52163;52.212;-1.002;2023-02-03T08:26:28;101689.80;;;8.56;93.20
62952;BME280;52163;52.212;-1.002;2023-02-03T08:28:53;101688.89;;;8.58;93.26
62952;BME280;52163;52.212;-1.002;2023-02-03T08:31:19;101698.88;;;8.59;93.30
62952;BME280;52163;52.212;-1.002;2023-02-03T08:33:44;101700.58;;;8.61;93.08
62952;BME280;52163;52.212;-1.002;2023-02-03T08:36:10;101701.74;;;8.63;93.14
62952;BME280;52163;52.212;-1.002;2023-02-03T08:38:36;101710.44;;;8.66;93.03
62952;BME280;52163;52.212;-1.002;2023-02-03T08:41:11;101708.78;;;8.68;93.05
62952;BME280;52163;52.212;-1.002;2023-02-03T08:43:37;101708.69;;;8.71;92.64
62952;BME280;52163;52.212;-1.002;2023-02-03T08:46:04;101714.80;;;8.73;92.65
62952;BME280;52163;52.212;-1.002;2023-02-03T08:48:31;101717.70;;;8.76;92.47
62952;BME280;52163;52.212;-1.002;2023-02-03T08:50:57;101716.19;;;8.79;92.25
62952;BME280;52163;52.212;-1.002;2023-02-03T08:53:23;101716.06;;;8.82;92.14
62952;BME280;52163;52.212;-1.002;2023-02-03T08:55:48;101717.55;;;8.85;92.23
62952;BME280;52163;52.212;-1.002;2023-02-03T08:58:14;101714.40;;;8.90;92.14
62952;BME280;52163;52.212;-1.002;2023-02-03T09:00:40;101720.29;;;8.94;91.97
62952;BME280;52163;52.212;-1.002;2023-02-03T09:03:05;101725.77;;;8.98;91.77
62952;BME280;52163;52.212;-1.002;2023-02-03T09:05:31;101733.21;;;9.02;91.64
62952;BME280;52163;52.212;-1.002;2023-02-03T09:07:57;101737.68;;;9.05;91.06
62952;BME280;52163;52.212;-1.002;2023-02-03T09:10:22;101746.66;;;9.11;91.19
62952;BME280;52163;52.212;-1.002;2023-02-03T09:12:48;101765.14;;;9.17;91.01
62952;BME280;52163;52.212;-1.002;2023-02-03T09:15:13;101781.52;;;9.22;90.70
62952;BME280;52163;52.212;-1.002;2023-02-03T09:17:38;101801.83;;;9.26;90.35
62952;BME280;52163;52.212;-1.002;2023-02-03T09:20:05;101815.77;;;9.31;90.23
62952;BME280;52163;52.212;-1.002;2023-02-03T09:22:30;101825.63;;;9.37;90.04
62952;BME280;52163;52.212;-1.002;2023-02-03T09:24:56;101840.44;;;9.43;90.01
62952;BME280;52163;52.212;-1.002;2023-02-03T09:27:22;101844.05;;;9.51;89.89
62952;BME280;52163;52.212;-1.002;2023-02-03T09:29:47;101850.67;;;9.58;89.70
62952;BME280;52163;52.212;-1.002;2023-02-03T09:32:12;101853.15;;;9.63;89.18
62952;BME280;52163;52.212;-1.002;2023-02-03T09:34:38;101855.70;;;9.66;89.06
62952;BME280;52163;52.212;-1.002;2023-02-03T09:37:06;101854.98;;;9.71;88.86
62952;BME280;52163;52.212;-1.002;2023-02-03T09:39:31;101858.42;;;9.73;88.53
62952;BME280;52163;52.212;-1.002;2023-02-03T09:47:10;101851.81;;;9.91;88.00
62952;BME280;52163;52.212;-1.002;2023-02-03T09:49:43;101846.52;;;9.96;88.00
62952;BME280;52163;52.212;-1.002;2023-02-03T09:52:23;101854.31;;;10.00;87.69
62952;BME280;52163;52.212;-1.002;2023-02-03T09:57:48;101861.64;;;10.12;87.34
62952;BME280;52163;52.212;-1.002;2023-02-03T10:00:20;101868.84;;;10.17;87.03
62952;BME280;52163;52.212;-1.002;2023-02-03T10:03:06;101878.88;;;10.23;86.76
62952;BME280;52163;52.212;-1.002;2023-02-03T10:19:10;101934.88;;;10.48;85.31
62952;BME280;52163;52.212;-1.002;2023-02-03T10:21:43;101932.91;;;10.48;85.40
62952;BME280;52163;52.212;-1.002;2023-02-03T10:24:15;101937.87;;;10.53;85.49
62952;BME280;52163;52.212;-1.002;2023-02-03T10:26:41;101935.77;;;10.57;85.27
62952;BME280;52163;52.212;-1.002;2023-02-03T10:29:40;101936.61;;;10.58;85.19
62952;BME280;52163;52.212;-1.002;2023-02-03T10:32:11;101940.39;;;10.61;84.76
62952;BME280;52163;52.212;-1.002;2023-02-03T10:34:37;101939.05;;;10.64;84.77
62952;BME280;52163;52.212;-1.002;2023-02-03T10:37:25;101944.20;;;10.68;84.86
62952;BME280;52163;52.212;-1.002;2023-02-03T10:39:52;101949.15;;;10.72;84.83
62952;BME280;52163;52.212;-1.002;2023-02-03T10:42:19;101952.63;;;10.79;84.68
62952;BME280;52163;52.212;-1.002;2023-02-03T10:44:51;101958.95;;;10.84;84.40
62952;BME280;52163;52.212;-1.002;2023-02-03T10:47:42;101965.81;;;10.90;84.14
62952;BME280;52163;52.212;-1.002;2023-02-03T10:50:22;101960.79;;;10.92;83.74
62952;BME280;52163;52.212;-1.002;2023-02-03T10:52:48;101965.53;;;10.93;83.58
62952;BME280;52163;52.212;-1.002;2023-02-03T10:57:54;101973.84;;;11.07;83.56
62952;BME280;52163;52.212;-1.002;2023-02-03T11:00:31;101975.63;;;11.11;83.22
62952;BME280;52163;52.212;-1.002;2023-02-03T11:03:07;101983.74;;;11.15;82.95
62952;BME280;52163;52.212;-1.002;2023-02-03T11:05:40;101990.63;;;11.20;82.79
62952;BME280;52163;52.212;-1.002;2023-02-03T11:08:15;101991.73;;;11.24;82.78
62952;BME280;52163;52.212;-1.002;2023-02-03T11:10:41;101993.52;;;11.27;82.53
62952;BME280;52163;52.212;-1.002;2023-02-03T11:13:12;101989.14;;;11.30;82.27
62952;BME280;52163;52.212;-1.002;2023-02-03T11:15:43;101987.35;;;11.31;82.12
62952;BME280;52163;52.212;-1.002;2023-02-03T11:18:41;101994.90;;;11.32;82.00
62952;BME280;52163;52.212;-1.002;2023-02-03T11:23:52;101998.67;;;11.41;81.80
62952;BME280;52163;52.212;-1.002;2023-02-03T11:26:24;101999.98;;;11.47;81.61
62952;BME280;52163;52.212;-1.002;2023-02-03T11:28:54;102000.82;;;11.57;81.55
62952;BME280;52163;52.212;-1.002;2023-02-03T11:31:23;102001.95;;;11.65;81.33
62952;BME280;52163;52.212;-1.002;2023-02-03T11:33:52;102002.41;;;11.71;81.02
62952;BME280;52163;52.212;-1.002;2023-02-03T11:36:19;102006.20;;;11.77;80.66
62952;BME280;52163;52.212;-1.002;2023-02-03T11:38:44;102000.00;;;11.86;80.54
62952;BME280;52163;52.212;-1.002;2023-02-03T11:41:18;102002.08;;;11.96;80.33
62952;BME280;52163;52.212;-1.002;2023-02-03T11:43:45;101995.47;;;12.06;80.00
62952;BME280;52163;52.212;-1.002;2023-02-03T11:46:11;101995.27;;;12.15;79.80
62952;BME280;52163;52.212;-1.002;2023-02-03T11:49:02;102001.27;;;12.23;79.27
62952;BME280;52163;52.212;-1.002;2023-02-03T11:51:52;102002.29;;;12.33;79.08
62952;BME280;52163;52.212;-1.002;2023-02-03T11:54:33;102003.06;;;12.40;78.60
62952;BME280;52163;52.212;-1.002;2023-02-03T12:13:28;102003.27;;;12.82;77.42
62952;BME280;52163;52.212;-1.002;2023-02-03T12:18:55;102007.06;;;13.00;76.22
62952;BME280;52163;52.212;-1.002;2023-02-03T12:21:45;102008.84;;;13.04;75.74
62952;BME280;52163;52.212;-1.002;2023-02-03T12:26:55;102023.38;;;13.00;75.42
62952;BME280;52163;52.212;-1.002;2023-02-03T12:29:30;102019.70;;;12.95;75.24
62952;BME280;52163;52.212;-1.002;2023-02-03T12:34:54;102027.78;;;12.93;75.29
62952;BME280;52163;52.212;-1.002;2023-02-03T12:37:27;102031.21;;;12.92;75.13
62952;BME280;52163;52.212;-1.002;2023-02-03T12:39:59;102034.25;;;12.87;75.27
62952;BME280;52163;52.212;-1.002;2023-02-03T12:42:48;102033.82;;;12.85;75.35
62952;BME280;52163;52.212;-1.002;2023-02-03T12:45:23;102037.23;;;12.81;75.13
62952;BME280;52163;52.212;-1.002;2023-02-03T12:47:57;102042.61;;;12.74;75.17
62952;BME280;52163;52.212;-1.002;2023-02-03T12:50:34;102046.84;;;12.68;75.79
62952;BME280;52163;52.212;-1.002;2023-02-03T12:55:55;102050.38;;;12.60;76.00
62952;BME280;52163;52.212;-1.002;2023-02-03T12:58:35;102050.56;;;12.56;76.19
62952;BME280;52163;52.212;-1.002;2023-02-03T13:06:07;102046.99;;;12.44;76.43
62952;BME280;52163;52.212;-1.002;2023-02-03T13:08:45;102045.11;;;12.42;76.61
62952;BME280;52163;52.212;-1.002;2023-02-03T13:11:36;102042.23;;;12.39;76.33
62952;BME280;52163;52.212;-1.002;2023-02-03T13:14:13;102033.39;;;12.39;76.12
62952;BME280;52163;52.212;-1.002;2023-02-03T13:16:44;102029.63;;;12.44;76.05
62952;BME280;52163;52.212;-1.002;2023-02-03T13:19:20;102033.90;;;12.52;76.08
62952;BME280;52163;52.212;-1.002;2023-02-03T13:21:49;102030.78;;;12.58;75.86
62952;BME280;52163;52.212;-1.002;2023-02-03T13:24:16;102026.65;;;12.63;75.85
62952;BME280;52163;52.212;-1.002;2023-02-03T13:26:48;102019.65;;;12.65;75.51
62952;BME280;52163;52.212;-1.002;2023-02-03T13:32:09;102019.81;;;12.54;75.32
62952;BME280;52163;52.212;-1.002;2023-02-03T13:34:46;102016.16;;;12.52;75.40
62952;BME280;52163;52.212;-1.002;2023-02-03T13:42:31;102023.98;;;12.56;76.24
62952;BME280;52163;52.212;-1.002;2023-02-03T13:45:14;102026.03;;;12.61;76.60
62952;BME280;52163;52.212;-1.002;2023-02-03T13:47:49;102023.34;;;12.66;76.53
62952;BME280;52163;52.212;-1.002;2023-02-03T13:50:27;102025.98;;;12.70;76.60
62952;BME280;52163;52.212;-1.002;2023-02-03T13:57:57;102026.60;;;12.80;76.26
62952;BME280;52163;52.212;-1.002;2023-02-03T14:05:48;102021.48;;;12.88;75.92
62952;BME280;52163;52.212;-1.002;2023-02-03T14:13:55;102016.42;;;12.89;75.59
62952;BME280;52163;52.212;-1.002;2023-02-03T14:16:24;102016.79;;;12.85;75.61
62952;BME280;52163;52.212;-1.002;2023-02-03T14:18:50;102022.63;;;12.85;75.56
62952;BME280;52163;52.212;-1.002;2023-02-03T14:21:24;102026.77;;;12.88;75.83
62952;BME280;52163;52.212;-1.002;2023-02-03T14:23:57;102029.25;;;12.92;75.80
62952;BME280;52163;52.212;-1.002;2023-02-03T14:26:44;102030.05;;;12.94;75.86
62952;BME280;52163;52.212;-1.002;2023-02-03T14:32:00;102025.48;;;12.89;75.48
62952;BME280;52163;52.212;-1.002;2023-02-03T14:34:32;102022.47;;;12.85;75.66
62952;BME280;52163;52.212;-1.002;2023-02-03T14:57:21;102017.73;;;12.28;76.40
62952;BME280;52163;52.212;-1.002;2023-02-03T14:59:52;102020.41;;;12.23;76.58
62952;BME280;52163;52.212;-1.002;2023-02-03T15:02:22;102025.23;;;12.18;76.83
62952;BME280;52163;52.212;-1.002;2023-02-03T15:10:20;102027.52;;;12.14;77.20
62952;BME280;52163;52.212;-1.002;2023-02-03T15:12:51;102034.11;;;12.14;77.23
62952;BME280;52163;52.212;-1.002;2023-02-03T15:15:21;102038.24;;;12.12;77.28
62952;BME280;52163;52.212;-1.002;2023-02-03T15:17:49;102041.08;;;12.12;77.51
62952;BME280;52163;52.212;-1.002;2023-02-03T15:20:25;102044.46;;;12.16;77.55
62952;BME280;52163;52.212;-1.002;2023-02-03T15:22:51;102044.39;;;12.18;77.42